Time;durP1;ratioP1;P1;durP2;ratioP2;P2;SDS_P1;SDS_P2;PMS_P1;PMS_P2;Temp;Humidity;BMP_temperature;BMP_pressure;BME280_temperature;BME280_humidity;BME280_pressure;Samples;Min_cycle;Max_cycle;Signal;HPM_P1;HPM_P2
2021/05/14 00:00:02;;;;;;;7.81;5.01;;;;;;;;;;334947;158;859593;-61
2021/05/14 00:01:04;;;;;;;6.57;5.67;;;;;;;;;;334944;158;865933;-61
2021/05/14 00:02:06;;;;;;;7.63;5.98;;;;;;;;;;339071;156;860780;-61
2021/05/14 00:03:07;;;;;;;10.04;5.68;;;;;;;;;;340044;157;865639;-61
2021/05/14 00:04:09;;;;;;;8.30;5.54;;;;;;;;;;338388;159;857329;-61
2021/05/14 00:05:11;;;;;;;7.15;5.66;;;;;;;;;;331133;158;857755;-61
2021/05/14 00:06:13;;;;;;;7.54;5.48;;;;;;;;;;340500;155;866931;-62
2021/05/14 00:07:16;;;;;;;7.51;5.97;;;;;;;;;;331517;161;859876;-62
2021/05/14 00:08:18;;;;;;;7.89;5.33;;;;;;;;;;336727;158;865084;-61
2021/05/14 00:09:19;;;;;;;5.85;5.01;;;;;;;;;;334865;158;857469;-61
2021/05/14 00:10:21;;;;;;;7.43;5.75;;;;;;;;;;335351;160;859995;-62
2021/05/14 00:11:23;;;;;;;7.51;5.80;;;;;;;;;;334538;158;858779;-61
2021/05/14 00:12:25;;;;;;;7.03;5.45;;;;;;;;;;335225;160;858295;-61
2021/05/14 00:13:26;;;;;;;9.54;5.26;;;;;;;;;;335552;158;857279;-62
2021/05/14 00:14:28;;;;;;;8.20;5.48;;;;;;;;;;335770;158;864886;-62
2021/05/14 00:15:29;;;;;;;8.31;5.91;;;;;;;;;;335336;160;857444;-62
2021/05/14 00:16:33;;;;;;;8.06;5.71;;;;;;;;;;339859;156;857749;-62
2021/05/14 00:17:35;;;;;;;9.11;5.18;;;;;;;;;;340078;156;857811;-61
2021/05/14 00:18:36;;;;;;;10.81;5.89;;;;;;;;;;340054;158;857893;-61
2021/05/14 00:19:38;;;;;;;7.90;5.59;;;;;;;;;;340097;155;865126;-61
2021/05/14 00:20:41;;;;;;;8.59;5.85;;;;;;;;;;338922;158;857235;-61
2021/05/14 00:21:43;;;;;;;8.11;5.45;;;;;;;;;;337863;155;864871;-61
2021/05/14 00:22:44;;;;;;;8.45;5.66;;;;;;;;;;334725;158;860880;-61
2021/05/14 00:23:46;;;;;;;8.21;5.88;;;;;;;;;;334459;161;857356;-62
2021/05/14 00:24:48;;;;;;;8.73;6.08;;;;;;;;;;333971;158;866485;-62
2021/05/14 00:25:50;;;;;;;9.42;5.69;;;;;;;;;;334382;161;865026;-61
2021/05/14 00:26:51;;;;;;;13.39;5.82;;;;;;;;;;334799;160;859796;-60
2021/05/14 00:27:53;;;;;;;7.96;5.81;;;;;;;;;;335753;158;865056;-61
2021/05/14 00:28:54;;;;;;;5.88;5.29;;;;;;;;;;335199;158;864965;-61
2021/05/14 00:29:56;;;;;;;8.02;5.64;;;;;;;;;;341048;155;868280;-63
2021/05/14 00:30:58;;;;;;;16.83;5.76;;;;;;;;;;339936;156;857683;-64
2021/05/14 00:31:59;;;;;;;7.51;5.69;;;;;;;;;;339686;158;866010;-61
2021/05/14 00:33:01;;;;;;;8.62;5.75;;;;;;;;;;336073;158;858841;-61
2021/05/14 00:34:03;;;;;;;8.11;5.54;;;;;;;;;;339468;158;857946;-63
2021/05/14 00:35:05;;;;;;;11.88;5.59;;;;;;;;;;340172;155;857829;-61
2021/05/14 00:36:06;;;;;;;9.83;5.31;;;;;;;;;;339342;155;863425;-62
2021/05/14 00:37:08;;;;;;;11.05;5.84;;;;;;;;;;338427;159;858807;-61
2021/05/14 00:38:09;;;;;;;8.61;5.91;;;;;;;;;;340826;155;857458;-61
2021/05/14 00:39:11;;;;;;;7.25;5.31;;;;;;;;;;338509;158;857354;-62
2021/05/14 00:40:15;;;;;;;8.42;5.58;;;;;;;;;;339541;158;857505;-61
2021/05/14 00:41:16;;;;;;;9.82;5.76;;;;;;;;;;333383;159;859172;-61
2021/05/14 00:42:18;;;;;;;7.01;5.31;;;;;;;;;;334430;158;858720;-61
2021/05/14 00:43:19;;;;;;;7.74;5.30;;;;;;;;;;335899;158;857464;-61
2021/05/14 00:44:34;;;;;;;8.44;5.28;;;;;;;;;;341691;155;857429;-61
2021/05/14 00:45:36;;;;;;;9.02;5.58;;;;;;;;;;339089;156;857782;-61
2021/05/14 00:46:38;;;;;;;8.57;5.97;;;;;;;;;;339971;156;858351;-61
2021/05/14 00:47:39;;;;;;;7.67;5.51;;;;;;;;;;338949;156;858165;-60
2021/05/14 00:48:41;;;;;;;9.27;5.52;;;;;;;;;;333729;156;857353;-61
2021/05/14 00:49:45;;;;;;;8.20;5.74;;;;;;;;;;339489;156;857820;-60
2021/05/14 00:50:47;;;;;;;9.19;5.15;;;;;;;;;;339503;155;857764;-61
2021/05/14 00:51:48;;;;;;;7.51;5.01;;;;;;;;;;334019;159;864954;-61
2021/05/14 00:52:50;;;;;;;10.54;5.03;;;;;;;;;;337178;158;861657;-61
2021/05/14 00:53:52;;;;;;;7.65;5.62;;;;;;;;;;337897;155;858853;-61
2021/05/14 00:54:53;;;;;;;8.43;5.56;;;;;;;;;;339954;156;857468;-63
2021/05/14 00:55:55;;;;;;;10.91;5.17;;;;;;;;;;340072;158;857308;-62
2021/05/14 00:56:58;;;;;;;6.25;5.51;;;;;;;;;;338426;156;865188;-62
2021/05/14 00:57:59;;;;;;;6.13;5.32;;;;;;;;;;339421;156;866679;-62
2021/05/14 00:59:01;;;;;;;6.53;5.05;;;;;;;;;;337618;159;857246;-62
2021/05/14 01:00:03;;;;;;;9.04;5.61;;;;;;;;;;340100;155;866710;-62
2021/05/14 01:01:05;;;;;;;9.63;5.35;;;;;;;;;;340190;158;865829;-61
2021/05/14 01:02:06;;;;;;;6.78;5.38;;;;;;;;;;340064;158;859926;-63
2021/05/14 01:03:14;;;;;;;7.81;4.96;;;;;;;;;;333492;158;857325;-62
2021/05/14 01:04:11;;;;;;;9.00;4.96;;;;;;;;;;333859;161;857551;-62
2021/05/14 01:05:13;;;;;;;9.41;5.28;;;;;;;;;;334522;158;859130;-62
2021/05/14 01:06:15;;;;;;;8.01;4.96;;;;;;;;;;334308;161;859523;-62
2021/05/14 01:07:17;;;;;;;8.39;5.28;;;;;;;;;;333096;158;859195;-62
2021/05/14 01:08:18;;;;;;;5.89;5.24;;;;;;;;;;332707;158;857458;-63
2021/05/14 01:09:20;;;;;;;10.44;5.52;;;;;;;;;;334424;161;857376;-62
2021/05/14 01:10:22;;;;;;;8.50;5.09;;;;;;;;;;334232;158;857382;-62
2021/05/14 01:11:23;;;;;;;8.59;5.84;;;;;;;;;;335182;158;857245;-62
2021/05/14 01:12:25;;;;;;;6.54;5.13;;;;;;;;;;334338;158;857297;-62
2021/05/14 01:13:26;;;;;;;7.27;5.06;;;;;;;;;;334925;158;864978;-62
2021/05/14 01:14:28;;;;;;;9.20;5.01;;;;;;;;;;327675;161;857461;-62
2021/05/14 01:15:30;;;;;;;7.26;4.69;;;;;;;;;;331063;161;864773;-62
2021/05/14 01:16:33;;;;;;;7.30;5.08;;;;;;;;;;334532;158;857449;-62
2021/05/14 01:17:35;;;;;;;7.84;5.04;;;;;;;;;;334464;161;857819;-62
2021/05/14 01:18:38;;;;;;;10.54;4.59;;;;;;;;;;335166;158;864839;-62
2021/05/14 01:19:40;;;;;;;5.13;4.47;;;;;;;;;;335591;158;857423;-62
2021/05/14 01:20:41;;;;;;;7.67;5.39;;;;;;;;;;335118;161;858888;-62
2021/05/14 01:21:43;;;;;;;7.44;4.93;;;;;;;;;;335088;158;864925;-62
2021/05/14 01:22:44;;;;;;;10.56;4.80;;;;;;;;;;335013;160;857313;-62
2021/05/14 01:23:46;;;;;;;8.14;4.84;;;;;;;;;;334806;158;857322;-62
2021/05/14 01:24:48;;;;;;;6.66;4.93;;;;;;;;;;335505;158;857435;-62
2021/05/14 01:25:49;;;;;;;5.59;4.71;;;;;;;;;;332796;158;864961;-61
2021/05/14 01:26:51;;;;;;;6.47;4.89;;;;;;;;;;339008;158;859058;-62
2021/05/14 01:27:53;;;;;;;6.79;5.19;;;;;;;;;;335664;158;866653;-61
2021/05/14 01:28:54;;;;;;;8.78;5.79;;;;;;;;;;335016;161;865721;-62
2021/05/14 01:29:56;;;;;;;7.16;4.66;;;;;;;;;;335271;158;864803;-62
2021/05/14 01:30:58;;;;;;;5.57;5.01;;;;;;;;;;334994;161;864774;-62
2021/05/14 01:31:59;;;;;;;6.71;5.07;;;;;;;;;;334052;158;864851;-62
2021/05/14 01:33:01;;;;;;;7.82;5.29;;;;;;;;;;337177;158;857769;-62
2021/05/14 01:34:04;;;;;;;7.17;5.43;;;;;;;;;;335128;161;858654;-62
2021/05/14 01:35:06;;;;;;;8.93;5.43;;;;;;;;;;335549;158;857357;-62
2021/05/14 01:36:08;;;;;;;5.43;4.72;;;;;;;;;;332594;158;858810;-62
2021/05/14 01:37:10;;;;;;;8.96;5.54;;;;;;;;;;334798;161;858876;-61
2021/05/14 01:38:12;;;;;;;9.39;5.44;;;;;;;;;;335892;158;864825;-61
2021/05/14 01:39:16;;;;;;;9.41;5.78;;;;;;;;;;334923;161;857497;-61
2021/05/14 01:40:18;;;;;;;6.96;5.22;;;;;;;;;;330835;158;857514;-60
2021/05/14 01:41:19;;;;;;;8.54;5.56;;;;;;;;;;335234;158;859424;-61
2021/05/14 01:42:21;;;;;;;6.41;5.14;;;;;;;;;;334939;161;863358;-61
2021/05/14 01:43:23;;;;;;;10.85;6.02;;;;;;;;;;333927;158;857222;-61
2021/05/14 01:44:24;;;;;;;8.79;5.60;;;;;;;;;;334963;161;866754;-61
2021/05/14 01:45:26;;;;;;;8.06;5.29;;;;;;;;;;334429;158;860399;-60
2021/05/14 01:46:30;;;;;;;6.64;5.18;;;;;;;;;;335339;158;864807;-61
2021/05/14 01:47:31;;;;;;;8.96;5.69;;;;;;;;;;334841;158;866710;-61
2021/05/14 01:48:33;;;;;;;8.32;5.30;;;;;;;;;;335506;158;866070;-61
2021/05/14 01:49:35;;;;;;;8.12;4.93;;;;;;;;;;334973;158;858435;-61
2021/05/14 01:50:37;;;;;;;9.02;5.41;;;;;;;;;;334895;161;858351;-61
2021/05/14 01:51:38;;;;;;;8.75;5.43;;;;;;;;;;334382;158;857936;-61
2021/05/14 01:52:40;;;;;;;12.29;5.25;;;;;;;;;;334578;161;857330;-61
2021/05/14 01:53:42;;;;;;;8.09;5.77;;;;;;;;;;335015;161;857815;-61
2021/05/14 01:54:43;;;;;;;7.90;5.58;;;;;;;;;;336430;158;865568;-62
2021/05/14 01:55:45;;;;;;;9.12;5.29;;;;;;;;;;332835;158;859804;-61
2021/05/14 01:56:49;;;;;;;9.20;5.15;;;;;;;;;;335239;158;865880;-61
2021/05/14 01:57:50;;;;;;;8.58;4.92;;;;;;;;;;335142;158;865108;-61
2021/05/14 01:58:52;;;;;;;9.46;6.04;;;;;;;;;;331711;158;858042;-61
2021/05/14 01:59:53;;;;;;;8.09;5.51;;;;;;;;;;335521;158;857635;-61
2021/05/14 02:00:55;;;;;;;10.45;5.29;;;;;;;;;;337873;158;857311;-61
2021/05/14 02:01:57;;;;;;;9.62;5.38;;;;;;;;;;338388;158;865024;-61
2021/05/14 02:02:58;;;;;;;8.11;4.99;;;;;;;;;;332475;158;858991;-62
2021/05/14 02:04:00;;;;;;;11.40;5.73;;;;;;;;;;334984;158;859230;-62
2021/05/14 02:05:01;;;;;;;6.07;5.06;;;;;;;;;;336177;158;865217;-61
2021/05/14 02:06:03;;;;;;;9.04;5.15;;;;;;;;;;335074;158;866614;-60
2021/05/14 02:07:05;;;;;;;10.01;5.03;;;;;;;;;;331304;158;865833;-60
2021/05/14 02:08:06;;;;;;;8.54;5.17;;;;;;;;;;333630;158;865022;-61
2021/05/14 02:09:08;;;;;;;6.63;4.85;;;;;;;;;;331875;158;857329;-61
2021/05/14 02:10:10;;;;;;;6.75;4.81;;;;;;;;;;337119;158;857353;-60
2021/05/14 02:11:12;;;;;;;9.94;5.34;;;;;;;;;;338048;158;857404;-61
2021/05/14 02:12:13;;;;;;;9.64;5.03;;;;;;;;;;335862;158;866969;-61
2021/05/14 02:13:15;;;;;;;9.71;4.51;;;;;;;;;;334682;158;859656;-59
2021/05/14 02:14:16;;;;;;;5.03;4.31;;;;;;;;;;335036;161;865782;-61
2021/05/14 02:15:18;;;;;;;9.46;4.86;;;;;;;;;;334270;161;858031;-60
2021/05/14 02:16:20;;;;;;;10.23;4.72;;;;;;;;;;335021;158;857411;-60
2021/05/14 02:17:22;;;;;;;6.44;4.64;;;;;;;;;;335080;161;857435;-60
2021/05/14 02:18:23;;;;;;;7.17;5.09;;;;;;;;;;334815;158;857830;-62
2021/05/14 02:19:25;;;;;;;9.08;4.97;;;;;;;;;;334225;160;857228;-60
2021/05/14 02:20:28;;;;;;;8.98;4.58;;;;;;;;;;335835;158;857375;-60
2021/05/14 02:21:30;;;;;;;7.13;5.15;;;;;;;;;;337676;158;859828;-62
2021/05/14 02:22:31;;;;;;;7.17;4.84;;;;;;;;;;329789;158;859620;-61
2021/05/14 02:23:33;;;;;;;6.75;4.75;;;;;;;;;;334682;158;857341;-61
2021/05/14 02:24:34;;;;;;;8.54;4.93;;;;;;;;;;334935;158;866122;-60
2021/05/14 02:25:36;;;;;;;9.91;4.85;;;;;;;;;;329399;161;857639;-60
2021/05/14 02:26:39;;;;;;;7.37;4.70;;;;;;;;;;335713;158;860299;-62
2021/05/14 02:27:41;;;;;;;7.54;4.91;;;;;;;;;;335000;161;857862;-61
2021/05/14 02:28:42;;;;;;;9.12;5.39;;;;;;;;;;335129;158;858961;-61
2021/05/14 02:29:46;;;;;;;9.59;4.76;;;;;;;;;;337571;158;857441;-61
2021/05/14 02:30:48;;;;;;;5.84;4.44;;;;;;;;;;334341;158;857268;-61
2021/05/14 02:31:49;;;;;;;7.45;4.56;;;;;;;;;;334472;158;866207;-62
2021/05/14 02:32:51;;;;;;;6.43;4.79;;;;;;;;;;337084;158;857588;-62
2021/05/14 02:33:52;;;;;;;8.84;4.82;;;;;;;;;;334735;158;857392;-62
2021/05/14 02:34:54;;;;;;;8.39;5.17;;;;;;;;;;336332;158;857344;-62
2021/05/14 02:35:55;;;;;;;7.19;4.94;;;;;;;;;;334638;161;865191;-62
2021/05/14 02:36:57;;;;;;;6.96;4.83;;;;;;;;;;334806;158;857849;-63
2021/05/14 02:37:59;;;;;;;8.02;5.01;;;;;;;;;;334858;158;867990;-62
2021/05/14 02:39:01;;;;;;;7.11;5.34;;;;;;;;;;331452;158;858873;-62
2021/05/14 02:40:03;;;;;;;6.21;5.28;;;;;;;;;;334911;158;858617;-63
2021/05/14 02:41:08;;;;;;;6.89;4.99;;;;;;;;;;336002;158;865327;-64
2021/05/14 02:42:08;;;;;;;8.03;5.01;;;;;;;;;;334703;161;858861;-65
2021/05/14 02:43:10;;;;;;;5.80;4.91;;;;;;;;;;333926;158;859956;-62
2021/05/14 02:44:12;;;;;;;7.33;4.64;;;;;;;;;;335127;158;860310;-62
2021/05/14 02:45:13;;;;;;;6.98;5.10;;;;;;;;;;334944;158;864980;-62
2021/05/14 02:46:16;;;;;;;9.71;4.66;;;;;;;;;;334597;158;866854;-63
2021/05/14 02:47:18;;;;;;;8.70;5.06;;;;;;;;;;334884;161;865081;-63
2021/05/14 02:48:20;;;;;;;6.39;5.11;;;;;;;;;;334880;158;866722;-62
2021/05/14 02:49:22;;;;;;;7.99;5.45;;;;;;;;;;334827;160;857338;-62
2021/05/14 02:50:25;;;;;;;7.41;5.11;;;;;;;;;;330269;158;864853;-62
2021/05/14 02:51:27;;;;;;;6.86;4.81;;;;;;;;;;332546;158;857304;-61
2021/05/14 02:52:28;;;;;;;5.93;5.11;;;;;;;;;;331074;158;859211;-63
2021/05/14 02:53:30;;;;;;;9.14;5.31;;;;;;;;;;336077;158;858860;-62
2021/05/14 02:54:35;;;;;;;5.92;5.14;;;;;;;;;;337523;158;857420;-62
2021/05/14 02:55:37;;;;;;;7.32;5.14;;;;;;;;;;334732;158;857317;-62
2021/05/14 02:56:39;;;;;;;6.91;5.16;;;;;;;;;;334716;158;858026;-61
2021/05/14 02:57:43;;;;;;;7.41;5.06;;;;;;;;;;334921;161;864874;-61
2021/05/14 02:58:45;;;;;;;6.74;5.26;;;;;;;;;;332563;158;856307;-63
2021/05/14 02:59:46;;;;;;;9.96;5.31;;;;;;;;;;335330;158;856179;-63
2021/05/14 03:00:48;;;;;;;8.26;5.38;;;;;;;;;;330851;161;856559;-64
2021/05/14 03:03:37;;;;;;;6.24;4.61;;;;;;;13.26;63.94;99027.37;379924;142;881323;-63
2021/05/14 03:04:39;;;;;;;11.23;4.77;;;;;;;13.19;63.86;99027.61;367151;144;859623;-62
2021/05/14 03:05:41;;;;;;;9.64;5.04;;;;;;;13.22;63.80;99027.50;367778;144;857290;-62
2021/05/14 03:06:42;;;;;;;6.06;4.85;;;;;;;13.22;63.76;99020.58;372323;144;865110;-62
2021/05/14 03:07:44;;;;;;;9.71;5.11;;;;;;;13.24;63.77;99026.57;366674;144;857420;-62
2021/05/14 03:08:46;;;;;;;7.13;5.25;;;;;;;13.26;63.66;99026.53;368163;144;864827;-63
2021/05/14 03:09:48;;;;;;;7.15;5.60;;;;;;;13.24;63.66;99018.77;370702;144;857843;-62
2021/05/14 03:10:50;;;;;;;7.59;4.98;;;;;;;13.25;63.71;99025.66;366104;144;865066;-63
2021/05/14 03:11:51;;;;;;;6.65;5.36;;;;;;;13.26;63.71;99016.97;367271;144;857822;-63
2021/05/14 03:12:53;;;;;;;10.47;5.10;;;;;;;13.28;63.64;99024.73;365818;144;865022;-62
2021/05/14 03:13:55;;;;;;;6.59;5.02;;;;;;;13.26;63.66;99023.94;366014;147;865003;-62
2021/05/14 03:14:57;;;;;;;6.69;4.83;;;;;;;13.26;63.64;99026.53;366242;144;864964;-63
2021/05/14 03:15:58;;;;;;;5.77;5.16;;;;;;;13.27;63.70;99025.63;367094;144;865241;-62
2021/05/14 03:17:02;;;;;;;7.51;5.14;;;;;;;13.28;63.70;99024.73;365989;147;865077;-62
2021/05/14 03:18:04;;;;;;;9.52;5.08;;;;;;;13.33;63.69;99027.16;365786;144;859627;-62
2021/05/14 03:19:06;;;;;;;8.25;5.29;;;;;;;13.37;63.46;99033.95;366152;144;864851;-62
2021/05/14 03:20:10;;;;;;;7.75;5.02;;;;;;;13.38;63.33;99028.72;365975;147;859189;-62
2021/05/14 03:21:11;;;;;;;7.91;5.75;;;;;;;13.41;63.33;99032.94;367625;144;865316;-62
2021/05/14 03:22:13;;;;;;;7.56;5.58;;;;;;;13.40;63.23;99032.11;365076;144;864948;-62
2021/05/14 03:23:15;;;;;;;8.76;5.31;;;;;;;13.38;63.25;99026.11;365297;147;857370;-63
2021/05/14 03:24:17;;;;;;;10.37;5.11;;;;;;;13.40;63.29;99023.45;362867;146;864961;-62
2021/05/14 03:25:19;;;;;;;7.20;5.24;;;;;;;13.42;63.31;99022.54;361999;147;857437;-62
2021/05/14 03:26:21;;;;;;;7.07;4.61;;;;;;;13.46;63.16;99028.47;363527;147;864929;-63
2021/05/14 03:27:23;;;;;;;7.19;5.37;;;;;;;13.52;63.05;99025.65;363819;146;859826;-62
2021/05/14 03:28:25;;;;;;;5.64;4.84;;;;;;;13.53;62.92;99029.95;359331;147;865605;-63
2021/05/14 03:29:26;;;;;;;8.50;5.25;;;;;;;13.54;62.98;99029.05;353498;148;865851;-63
2021/05/14 03:30:29;;;;;;;7.47;5.35;;;;;;;13.56;62.89;99034.20;355133;147;857606;-62
2021/05/14 03:31:31;;;;;;;6.58;5.49;;;;;;;13.54;62.58;99034.25;359532;147;859119;-63
2021/05/14 03:32:32;;;;;;;7.75;5.23;;;;;;;13.56;62.72;99040.23;362015;146;866852;-63
2021/05/14 03:33:34;;;;;;;6.01;5.32;;;;;;;13.59;62.76;99032.33;364560;147;859100;-63
2021/05/14 03:34:37;;;;;;;7.39;5.23;;;;;;;13.63;62.45;99037.42;366008;147;865701;-63
2021/05/14 03:35:39;;;;;;;9.41;5.48;;;;;;;13.64;62.45;99039.13;365170;146;859026;-62
2021/05/14 03:36:41;;;;;;;8.95;5.87;;;;;;;13.64;62.50;99036.52;365302;147;857358;-62
2021/05/14 03:37:43;;;;;;;9.79;5.59;;;;;;;13.65;62.51;99033.02;364962;147;857352;-63
2021/05/14 03:38:45;;;;;;;10.26;5.60;;;;;;;13.63;62.39;99033.09;364667;146;865015;-62
2021/05/14 03:39:51;;;;;;;8.53;5.56;;;;;;;13.64;62.37;99039.98;362524;147;865681;-62
2021/05/14 03:40:50;;;;;;;9.26;4.99;;;;;;;;;;360751;147;866174;-63
2021/05/14 03:43:12;;;;;;;10.94;5.36;;;;;;;;;;360200;147;860105;-63
2021/05/14 03:44:13;;;;;;;7.79;5.16;;;;;;;;;;361894;146;859478;-63
2021/05/14 03:45:16;;;;;;;10.21;5.37;;;;;;;;;;363626;146;865920;-63
2021/05/14 03:46:19;;;;;;;6.85;5.04;;;;;;;;;;365359;147;865924;-61
2021/05/14 03:47:23;;;;;;;8.94;5.64;;;;;;;;;;364654;146;857460;-61
2021/05/14 03:48:25;;;;;;;10.41;5.09;;;;;;;;;;363966;147;859327;-62
2021/05/14 03:49:27;;;;;;;7.72;5.44;;;;;;;;;;361992;147;860877;-61
2021/05/14 03:50:31;;;;;;;9.32;5.29;;;;;;;;;;362693;147;866651;-62
2021/05/14 03:51:37;;;;;;;9.10;5.26;;;;;;;;;;362258;148;857377;-62
2021/05/14 03:52:39;;;;;;;8.32;5.23;;;;;;;;;;362408;147;857521;-61
2021/05/14 03:53:40;;;;;;;10.47;5.86;;;;;;;;;;365850;147;856599;-62
2021/05/14 03:54:42;;;;;;;9.74;5.37;;;;;;;;;;363797;147;865134;-62
2021/05/14 03:55:44;;;;;;;11.61;5.48;;;;;;;;;;361746;146;857232;-62
2021/05/14 03:56:47;;;;;;;12.86;5.16;;;;;;;;;;359958;147;857272;-62
2021/05/14 03:57:49;;;;;;;8.95;5.56;;;;;;;;;;362317;147;865120;-62
2021/05/14 03:58:50;;;;;;;10.89;5.36;;;;;;;;;;362151;146;859484;-62
2021/05/14 03:59:52;;;;;;;11.34;5.31;;;;;;;;;;362600;147;857405;-62
2021/05/14 04:00:54;;;;;;;11.04;5.39;;;;;;;;;;362172;147;866830;-62
2021/05/14 04:01:56;;;;;;;10.49;5.71;;;;;;;;;;361238;147;866892;-62
2021/05/14 04:02:58;;;;;;;8.86;5.45;;;;;;;;;;362665;148;865367;-62
2021/05/14 04:03:59;;;;;;;12.07;5.78;;;;;;;;;;360517;147;858643;-62
2021/05/14 04:05:01;;;;;;;8.48;5.43;;;;;;;;;;357155;148;858701;-62
2021/05/14 04:06:03;;;;;;;7.09;5.34;;;;;;;;;;359176;147;857275;-61
2021/05/14 04:07:06;;;;;;;9.32;5.35;;;;;;;;;;363536;147;857261;-62
2021/05/14 04:08:09;;;;;;;8.19;5.53;;;;;;;;;;364257;147;858317;-62
2021/05/14 04:09:11;;;;;;;8.28;5.54;;;;;;;;;;362673;147;858889;-62
2021/05/14 04:10:18;;;;;;;9.47;5.48;;;;;;;;;;362327;147;860070;-62
2021/05/14 04:14:58;;;;;;;8.42;5.69;;;;;;;;;;357235;148;859143;-63
2021/05/14 04:15:59;;;;;;;8.40;5.92;;;;;;;;;;356884;147;866708;-62
2021/05/14 04:17:02;;;;;;;11.11;5.53;;;;;;;;;;361303;148;865138;-62
2021/05/14 04:18:03;;;;;;;8.69;5.19;;;;;;;;;;358583;147;865141;-62
2021/05/14 04:19:05;;;;;;;15.57;5.63;;;;;;;;;;362632;147;857936;-62
2021/05/14 04:20:07;;;;;;;9.50;5.66;;;;;;;;;;358844;148;867337;-62
2021/05/14 04:21:09;;;;;;;14.69;5.79;;;;;;;;;;361798;147;859163;-62
2021/05/14 04:22:10;;;;;;;11.44;5.49;;;;;;;;;;360756;148;865052;-62
2021/05/14 04:23:12;;;;;;;10.44;5.62;;;;;;;;;;360415;148;858533;-62
2021/05/14 04:24:13;;;;;;;12.11;5.68;;;;;;;;;;361628;147;859656;-63
2021/05/14 04:25:15;;;;;;;9.33;5.72;;;;;;;;;;360778;147;858961;-62
2021/05/14 04:26:17;;;;;;;9.52;5.85;;;;;;;;;;360563;148;857545;-62
2021/05/14 04:27:19;;;;;;;8.15;6.45;;;;;;;;;;358953;147;857914;-62
2021/05/14 04:28:20;;;;;;;16.04;5.31;;;;;;;;;;358989;148;856614;-62
2021/05/14 04:29:22;;;;;;;9.43;6.11;;;;;;;;;;362112;147;865221;-62
2021/05/14 04:30:24;;;;;;;7.87;5.52;;;;;;;;;;359034;147;865012;-62
2021/05/14 04:31:25;;;;;;;7.36;5.50;;;;;;;;;;361440;148;858902;-62
2021/05/14 04:32:27;;;;;;;8.59;5.66;;;;;;;;;;360465;147;858291;-62
2021/05/14 04:33:29;;;;;;;8.84;5.57;;;;;;;;;;360605;147;866652;-62
2021/05/14 04:34:30;;;;;;;8.95;5.54;;;;;;;;;;362906;147;858845;-62
2021/05/14 04:35:32;;;;;;;11.36;6.41;;;;;;;;;;358414;147;866261;-62
2021/05/14 04:36:35;;;;;;;10.05;6.17;;;;;;;;;;362892;148;866079;-63
2021/05/14 04:37:36;;;;;;;10.46;5.03;;;;;;;;;;359598;147;860591;-63
2021/05/14 04:38:38;;;;;;;13.19;6.07;;;;;;;;;;358209;147;857400;-62
2021/05/14 04:39:41;;;;;;;11.10;6.02;;;;;;;;;;359693;148;865210;-63
2021/05/14 04:40:43;;;;;;;10.71;6.19;;;;;;;;;;359839;147;857404;-63
2021/05/14 04:41:45;;;;;;;12.28;6.15;;;;;;;;;;360932;147;866388;-63
2021/05/14 04:42:46;;;;;;;9.89;6.34;;;;;;;;;;360437;148;857780;-63
2021/05/14 04:43:48;;;;;;;9.44;5.71;;;;;;;;;;358793;147;857113;-62
2021/05/14 04:44:50;;;;;;;13.32;6.54;;;;;;;;;;358034;148;857322;-62
2021/05/14 04:45:52;;;;;;;10.78;5.67;;;;;;;;;;357683;147;859087;-62
2021/05/14 04:46:53;;;;;;;11.89;6.73;;;;;;;;;;352262;150;858348;-62
2021/05/14 04:47:55;;;;;;;9.83;6.32;;;;;;;;;;352228;148;859004;-62
2021/05/14 04:48:57;;;;;;;13.32;6.37;;;;;;;;;;362076;147;866355;-62
2021/05/14 04:49:58;;;;;;;10.75;5.91;;;;;;;;;;358209;147;859470;-62
2021/05/14 04:51:00;;;;;;;13.56;6.96;;;;;;;;;;356390;148;857419;-62
2021/05/14 04:52:04;;;;;;;8.54;6.39;;;;;;;;;;358345;147;865183;-62
2021/05/14 04:53:09;;;;;;;13.03;5.89;;;;;;;;;;358163;147;857744;-62
2021/05/14 04:54:11;;;;;;;10.63;6.16;;;;;;;;;;360311;147;858390;-63
2021/05/14 04:55:12;;;;;;;9.72;6.32;;;;;;;;;;360995;147;857579;-62
2021/05/14 04:56:15;;;;;;;12.03;6.25;;;;;;;;;;356902;148;865131;-63
2021/05/14 04:57:16;;;;;;;12.37;6.46;;;;;;;;;;361637;148;857410;-62
2021/05/14 04:58:18;;;;;;;10.77;6.06;;;;;;;;;;360435;147;857449;-62
2021/05/14 04:59:20;;;;;;;14.53;6.21;;;;;;;;;;360155;147;865290;-62
2021/05/14 05:00:22;;;;;;;10.39;6.40;;;;;;;;;;358959;147;857206;-62
2021/05/14 05:01:24;;;;;;;9.90;6.24;;;;;;;;;;359170;147;857199;-62
2021/05/14 05:02:26;;;;;;;12.64;5.67;;;;;;;;;;359431;148;857795;-62
2021/05/14 05:03:27;;;;;;;11.90;5.89;;;;;;;;;;362148;147;857762;-62
2021/05/14 05:04:29;;;;;;;12.12;6.20;;;;;;;;;;365247;146;865073;-62
2021/05/14 05:05:30;;;;;;;10.14;6.13;;;;;;;;;;361788;146;857448;-62
2021/05/14 05:06:34;;;;;;;11.03;6.58;;;;;;;;;;360047;147;858827;-63
2021/05/14 05:07:35;;;;;;;13.44;6.23;;;;;;;;;;362116;147;857806;-62
2021/05/14 05:08:37;;;;;;;9.77;5.75;;;;;;;;;;358674;148;865581;-63
2021/05/14 05:09:38;;;;;;;9.01;5.46;;;;;;;;;;359438;147;857305;-62
2021/05/14 05:10:41;;;;;;;11.36;5.70;;;;;;;;;;357868;148;857669;-62
2021/05/14 05:11:43;;;;;;;11.64;5.25;;;;;;;;;;357854;147;865055;-62
2021/05/14 05:12:44;;;;;;;11.04;4.95;;;;;;;;;;360169;147;857320;-62
2021/05/14 05:13:46;;;;;;;10.61;5.48;;;;;;;;;;361160;148;865873;-62
2021/05/14 05:14:47;;;;;;;13.22;5.75;;;;;;;;;;361062;147;860539;-63
2021/05/14 05:15:49;;;;;;;6.35;4.38;;;;;;;;;;359140;147;856422;-63
2021/05/14 05:16:51;;;;;;;7.23;4.27;;;;;;;;;;360791;148;856291;-63
2021/05/14 05:17:53;;;;;;;7.46;4.60;;;;;;;;;;360394;147;863755;-63
2021/05/14 05:18:55;;;;;;;12.98;6.09;;;;;;;;;;362518;147;856472;-63
2021/05/14 05:19:56;;;;;;;8.03;4.94;;;;;;;;;;359414;147;857160;-63
2021/05/14 05:20:58;;;;;;;11.96;5.76;;;;;;;;;;360732;147;856284;-63
2021/05/14 05:22:01;;;;;;;9.16;4.92;;;;;;;;;;362546;148;863929;-63
2021/05/14 05:23:03;;;;;;;8.28;4.61;;;;;;;;;;361468;147;857031;-63
2021/05/14 05:24:05;;;;;;;7.68;5.01;;;;;;;;;;358561;147;856294;-62
2021/05/14 05:25:07;;;;;;;10.05;5.61;;;;;;;;;;357341;148;857211;-62
2021/05/14 05:26:10;;;;;;;8.64;4.73;;;;;;;;;;361168;147;859307;-63
2021/05/14 05:27:13;;;;;;;8.56;4.79;;;;;;;;;;361161;147;859106;-63
2021/05/14 05:28:17;;;;;;;12.26;5.23;;;;;;;;;;355251;151;857701;-63
2021/05/14 05:29:18;;;;;;;7.19;4.99;;;;;;;;;;358597;147;858249;-62
2021/05/14 05:30:23;;;;;;;8.53;5.59;;;;;;;;;;357135;148;857500;-62
2021/05/14 05:31:25;;;;;;;12.77;5.21;;;;;;;;;;362276;148;857356;-63
2021/05/14 05:32:27;;;;;;;7.35;4.49;;;;;;;;;;359513;147;859655;-62
2021/05/14 05:33:28;;;;;;;8.99;4.54;;;;;;;;;;357003;148;857305;-63
2021/05/14 05:34:30;;;;;;;9.46;4.98;;;;;;;;;;362571;147;859229;-63
2021/05/14 05:35:32;;;;;;;7.83;3.86;;;;;;;;;;357431;147;858040;-62
2021/05/14 05:36:35;;;;;;;7.24;4.28;;;;;;;;;;358239;148;859503;-63
2021/05/14 05:37:36;;;;;;;10.75;4.13;;;;;;;;;;362180;147;857767;-63
2021/05/14 05:38:38;;;;;;;8.12;4.51;;;;;;;;;;361775;147;865185;-63
2021/05/14 05:39:40;;;;;;;9.47;4.78;;;;;;;;;;362266;148;857518;-62
2021/05/14 05:40:43;;;;;;;8.41;4.51;;;;;;;;;;360355;147;859296;-63
2021/05/14 05:41:45;;;;;;;9.05;4.82;;;;;;;;;;361389;148;857304;-62
2021/05/14 05:44:30;;;;;;;5.27;3.62;;;;;;;17.35;52.14;98982.52;374832;142;881264;-62
2021/05/14 05:45:32;;;;;;;4.89;3.30;;;;;;;17.28;51.89;98981.14;362473;145;859541;-61
2021/05/14 05:46:34;;;;;;;9.01;4.94;;;;;;;;;;363168;145;864886;-61
2021/05/14 05:47:35;;;;;;;8.38;4.46;;;;;;;;;;363237;147;857359;-61
2021/05/14 05:48:37;;;;;;;11.05;4.57;;;;;;;;;;359689;146;857255;-61
2021/05/14 05:49:39;;;;;;;9.68;4.51;;;;;;;;;;361218;144;865122;-60
2021/05/14 05:50:41;;;;;;;8.72;4.59;;;;;;;;;;361557;147;866569;-61
2021/05/14 05:51:43;;;;;;;9.55;4.64;;;;;;;;;;366458;145;865013;-62
2021/05/14 05:52:45;;;;;;;12.29;4.96;;;;;;;;;;364932;145;866811;-62
2021/05/14 05:53:46;;;;;;;9.79;4.89;;;;;;;;;;363809;145;857387;-62
2021/05/14 05:54:48;;;;;;;11.01;4.20;;;;;;;;;;364647;145;858665;-61
2021/05/14 05:55:50;;;;;;;13.33;5.17;;;;;;;;;;364383;147;859867;-61
2021/05/14 05:56:57;;;;;;;10.62;4.98;;;;;;;;;;365200;147;858837;-60
2021/05/14 05:57:56;;;;;;;6.58;3.83;;;;;;;;;;358813;146;860213;-60
2021/05/14 05:58:58;;;;;;;6.94;4.53;;;;;;;;;;358163;150;859228;-62
2021/05/14 05:59:59;;;;;;;7.57;4.58;;;;;;;;;;363832;146;857325;-61
2021/05/14 06:01:01;;;;;;;8.75;5.06;;;;;;;;;;363250;145;864811;-61
2021/05/14 06:02:02;;;;;;;9.40;4.61;;;;;;;;;;361575;144;866898;-63